sensor_id;sensor_type;location;lat;lon;timestamp;pressure;altitude;pressure_sealevel;temperature;humidity
8360;BME280;4217;48.762;11.428;2022-07-18T00:07:47;98239.16;;;22.12;40.23
8360;BME280;4217;48.762;11.428;2022-07-18T00:17:48;98247.75;;;21.95;41.44
8360;BME280;4217;48.762;11.428;2022-07-18T00:27:50;98257.06;;;21.70;42.45
8360;BME280;4217;48.762;11.428;2022-07-18T00:37:51;98251.06;;;21.60;43.10
8360;BME280;4217;48.762;11.428;2022-07-18T00:47:53;98253.00;;;21.40;44.36
8360;BME280;4217;48.762;11.428;2022-07-18T00:57:55;98246.63;;;21.23;41.33
8360;BME280;4217;48.762;11.428;2022-07-18T01:07:58;98244.88;;;21.13;41.15
8360;BME280;4217;48.762;11.428;2022-07-18T01:18:00;98236.66;;;20.91;41.79
8360;BME280;4217;48.762;11.428;2022-07-18T01:28:02;98235.06;;;20.90;42.35
8360;BME280;4217;48.762;11.428;2022-07-18T01:38:04;98238.63;;;20.85;43.64
8360;BME280;4217;48.762;11.428;2022-07-18T01:48:06;98235.94;;;20.66;45.40
8360;BME280;4217;48.762;11.428;2022-07-18T01:58:08;98245.81;;;20.47;47.25
8360;BME280;4217;48.762;11.428;2022-07-18T02:08:10;98261.91;;;20.42;47.34
8360;BME280;4217;48.762;11.428;2022-07-18T02:18:12;98275.13;;;20.34;47.26
8360;BME280;4217;48.762;11.428;2022-07-18T02:28:13;98275.53;;;20.17;48.70
8360;BME280;4217;48.762;11.428;2022-07-18T02:38:15;98283.41;;;20.08;47.05
8360;BME280;4217;48.762;11.428;2022-07-18T02:48:16;98266.91;;;20.01;43.86
8360;BME280;4217;48.762;11.428;2022-07-18T02:58:18;98265.13;;;19.92;44.01
8360;BME280;4217;48.762;11.428;2022-07-18T03:08:19;98284.28;;;19.75;42.70
8360;BME280;4217;48.762;11.428;2022-07-18T03:18:21;98285.94;;;19.66;42.05
8360;BME280;4217;48.762;11.428;2022-07-18T03:28:23;98289.53;;;19.51;40.82
8360;BME280;4217;48.762;11.428;2022-07-18T03:38:25;98283.38;;;19.56;40.11
8360;BME280;4217;48.762;11.428;2022-07-18T03:48:26;98300.97;;;19.57;40.13
8360;BME280;4217;48.762;11.428;2022-07-18T03:58:30;98311.28;;;19.68;39.99
8360;BME280;4217;48.762;11.428;2022-07-18T04:08:32;98305.31;;;19.76;40.39
8360;BME280;4217;48.762;11.428;2022-07-18T04:18:33;98299.66;;;19.83;39.89
8360;BME280;4217;48.762;11.428;2022-07-18T04:28:40;98302.28;;;19.88;39.17
8360;BME280;4217;48.762;11.428;2022-07-18T04:38:42;98297.94;;;20.21;38.48
8360;BME280;4217;48.762;11.428;2022-07-18T04:48:43;98299.28;;;20.47;37.89
8360;BME280;4217;48.762;11.428;2022-07-18T04:58:47;98301.03;;;20.76;37.34
8360;BME280;4217;48.762;11.428;2022-07-18T05:08:49;98294.88;;;20.94;37.45
8360;BME280;4217;48.762;11.428;2022-07-18T05:18:51;98310.09;;;21.36;37.81
8360;BME280;4217;48.762;11.428;2022-07-18T05:28:53;98293.44;;;21.71;38.05
8360;BME280;4217;48.762;11.428;2022-07-18T05:38:56;98293.75;;;22.16;37.87
8360;BME280;4217;48.762;11.428;2022-07-18T05:48:58;98290.44;;;22.46;37.44
8360;BME280;4217;48.762;11.428;2022-07-18T05:59:00;98291.44;;;24.68;34.92
8360;BME280;4217;48.762;11.428;2022-07-18T06:09:02;98272.25;;;39.69;16.64
8360;BME280;4217;48.762;11.428;2022-07-18T06:19:04;98277.09;;;46.79;11.00
8360;BME280;4217;48.762;11.428;2022-07-18T06:29:05;98265.94;;;49.91;8.84
8360;BME280;4217;48.762;11.428;2022-07-18T06:39:07;98264.19;;;51.31;8.00
8360;BME280;4217;48.762;11.428;2022-07-18T06:49:12;98249.00;;;52.51;7.12
8360;BME280;4217;48.762;11.428;2022-07-18T06:59:15;98245.19;;;55.35;6.17
8360;BME280;4217;48.762;11.428;2022-07-18T07:09:16;98237.44;;;57.29;5.05
8360;BME280;4217;48.762;11.428;2022-07-18T07:19:18;98226.03;;;57.61;5.06
8360;BME280;4217;48.762;11.428;2022-07-18T07:29:19;98224.16;;;58.37;4.82
8360;BME280;4217;48.762;11.428;2022-07-18T07:39:21;98221.94;;;58.77;4.60
8360;BME280;4217;48.762;11.428;2022-07-18T07:49:22;98215.88;;;59.50;4.42
8360;BME280;4217;48.762;11.428;2022-07-18T07:59:24;98200.16;;;58.92;4.22
8360;BME280;4217;48.762;11.428;2022-07-18T08:09:26;98196.53;;;59.77;4.05
8360;BME280;4217;48.762;11.428;2022-07-18T08:19:27;98195.19;;;59.70;3.97
8360;BME280;4217;48.762;11.428;2022-07-18T08:29:29;98179.03;;;59.94;3.82
8360;BME280;4217;48.762;11.428;2022-07-18T08:39:50;98185.03;;;60.49;3.85
8360;BME280;4217;48.762;11.428;2022-07-18T08:49:53;98180.69;;;61.09;3.03
8360;BME280;4217;48.762;11.428;2022-07-18T08:59:54;98194.63;;;60.15;3.40
8360;BME280;4217;48.762;11.428;2022-07-18T09:09:58;98184.28;;;59.46;3.39
8360;BME280;4217;48.762;11.428;2022-07-18T09:40:19;98162.00;;;58.73;3.01
8360;BME280;4217;48.762;11.428;2022-07-18T09:50:39;98163.84;;;58.70;3.12
8360;BME280;4217;48.762;11.428;2022-07-18T10:00:42;98152.50;;;58.70;2.66
8360;BME280;4217;48.762;11.428;2022-07-18T10:10:47;98153.41;;;59.42;2.82
8360;BME280;4217;48.762;11.428;2022-07-18T10:20:58;98147.59;;;58.50;2.61
8360;BME280;4217;48.762;11.428;2022-07-18T10:31:30;98137.03;;;58.29;2.57
8360;BME280;4217;48.762;11.428;2022-07-18T10:52:02;98125.59;;;58.84;2.41
8360;BME280;4217;48.762;11.428;2022-07-18T11:02:05;98114.03;;;54.39;3.83
8360;BME280;4217;48.762;11.428;2022-07-18T11:12:29;98114.78;;;45.82;7.75
8360;BME280;4217;48.762;11.428;2022-07-18T11:22:33;98117.16;;;41.92;9.56
8360;BME280;4217;48.762;11.428;2022-07-18T11:32:35;98112.16;;;39.91;10.88
8360;BME280;4217;48.762;11.428;2022-07-18T11:42:38;98107.91;;;39.86;11.02
8360;BME280;4217;48.762;11.428;2022-07-18T11:52:42;98105.63;;;38.50;12.13
8360;BME280;4217;48.762;11.428;2022-07-18T12:02:44;98102.38;;;38.25;11.94
8360;BME280;4217;48.762;11.428;2022-07-18T12:12:47;98095.00;;;38.52;11.90
8360;BME280;4217;48.762;11.428;2022-07-18T12:23:09;98092.94;;;38.87;11.85
8360;BME280;4217;48.762;11.428;2022-07-18T12:33:14;98083.28;;;38.75;11.85
8360;BME280;4217;48.762;11.428;2022-07-18T12:43:22;98075.28;;;38.57;12.16
8360;BME280;4217;48.762;11.428;2022-07-18T12:53:25;98069.25;;;38.96;11.65
8360;BME280;4217;48.762;11.428;2022-07-18T13:03:27;98067.00;;;38.88;11.62
8360;BME280;4217;48.762;11.428;2022-07-18T13:13:28;98058.41;;;39.36;11.07
8360;BME280;4217;48.762;11.428;2022-07-18T13:23:30;98057.81;;;39.71;11.15
8360;BME280;4217;48.762;11.428;2022-07-18T13:33:32;98055.66;;;39.79;10.91
8360;BME280;4217;48.762;11.428;2022-07-18T13:43:35;98037.38;;;39.69;10.85
8360;BME280;4217;48.762;11.428;2022-07-18T13:53:38;98042.91;;;40.64;10.94
8360;BME280;4217;48.762;11.428;2022-07-18T14:03:39;98028.69;;;41.02;10.60
8360;BME280;4217;48.762;11.428;2022-07-18T14:13:41;98015.41;;;40.80;10.88
8360;BME280;4217;48.762;11.428;2022-07-18T14:23:43;98002.28;;;41.62;10.55
8360;BME280;4217;48.762;11.428;2022-07-18T14:33:45;97997.44;;;41.05;10.67
8360;BME280;4217;48.762;11.428;2022-07-18T14:43:46;97996.44;;;40.82;10.69
8360;BME280;4217;48.762;11.428;2022-07-18T14:53:48;97983.03;;;40.97;10.66
8360;BME280;4217;48.762;11.428;2022-07-18T15:03:50;97979.31;;;41.36;10.35
8360;BME280;4217;48.762;11.428;2022-07-18T15:13:59;97972.94;;;41.97;10.17
8360;BME280;4217;48.762;11.428;2022-07-18T15:24:01;97967.97;;;42.17;10.24
8360;BME280;4217;48.762;11.428;2022-07-18T15:34:02;97970.41;;;41.45;10.60
8360;BME280;4217;48.762;11.428;2022-07-18T15:44:08;97953.47;;;40.97;11.26
8360;BME280;4217;48.762;11.428;2022-07-18T15:54:10;97939.84;;;40.90;11.11
8360;BME280;4217;48.762;11.428;2022-07-18T16:04:13;97928.84;;;39.86;11.63
8360;BME280;4217;48.762;11.428;2022-07-18T16:14:15;97922.84;;;40.27;11.72
8360;BME280;4217;48.762;11.428;2022-07-18T16:24:16;97915.50;;;40.20;11.45
8360;BME280;4217;48.762;11.428;2022-07-18T16:34:19;97909.38;;;40.13;11.83
8360;BME280;4217;48.762;11.428;2022-07-18T16:44:21;97903.00;;;39.40;11.86
8360;BME280;4217;48.762;11.428;2022-07-18T16:54:23;97900.84;;;38.62;12.38
8360;BME280;4217;48.762;11.428;2022-07-18T17:04:24;97902.38;;;38.13;12.88
8360;BME280;4217;48.762;11.428;2022-07-18T17:14:26;97903.66;;;37.74;14.05
8360;BME280;4217;48.762;11.428;2022-07-18T17:24:28;97896.81;;;37.22;14.13
8360;BME280;4217;48.762;11.428;2022-07-18T17:34:31;97896.13;;;36.62;14.49
8360;BME280;4217;48.762;11.428;2022-07-18T17:44:34;97907.91;;;35.93;15.32
8360;BME280;4217;48.762;11.428;2022-07-18T17:54:36;97906.09;;;35.51;15.79
8360;BME280;4217;48.762;11.428;2022-07-18T18:04:38;97899.19;;;35.01;16.32
8360;BME280;4217;48.762;11.428;2022-07-18T18:14:39;97902.72;;;34.76;17.00
8360;BME280;4217;48.762;11.428;2022-07-18T18:24:41;97907.38;;;34.44;17.68
8360;BME280;4217;48.762;11.428;2022-07-18T18:34:44;97917.75;;;33.85;18.40
8360;BME280;4217;48.762;11.428;2022-07-18T18:44:45;97922.25;;;33.46;19.20
8360;BME280;4217;48.762;11.428;2022-07-18T18:54:47;97929.34;;;33.03;19.75
8360;BME280;4217;48.762;11.428;2022-07-18T19:04:48;97929.28;;;32.48;19.97
8360;BME280;4217;48.762;11.428;2022-07-18T19:14:50;97930.72;;;32.01;21.07
8360;BME280;4217;48.762;11.428;2022-07-18T19:24:54;97933.56;;;31.52;21.61
8360;BME280;4217;48.762;11.428;2022-07-18T19:34:55;97943.84;;;31.10;22.63
8360;BME280;4217;48.762;11.428;2022-07-18T19:44:57;97953.94;;;30.64;23.01
8360;BME280;4217;48.762;11.428;2022-07-18T19:54:59;97956.28;;;30.23;23.47
8360;BME280;4217;48.762;11.428;2022-07-18T20:05:01;97962.50;;;29.85;24.74
8360;BME280;4217;48.762;11.428;2022-07-18T20:15:03;97967.50;;;29.48;25.18
8360;BME280;4217;48.762;11.428;2022-07-18T20:25:05;97965.28;;;29.19;25.45
8360;BME280;4217;48.762;11.428;2022-07-18T20:35:09;97968.38;;;28.86;27.25
8360;BME280;4217;48.762;11.428;2022-07-18T20:45:12;97978.16;;;28.47;27.99
8360;BME280;4217;48.762;11.428;2022-07-18T20:55:14;97974.81;;;28.22;28.99
8360;BME280;4217;48.762;11.428;2022-07-18T21:05:16;97981.84;;;27.99;28.24
8360;BME280;4217;48.762;11.428;2022-07-18T21:15:18;97979.00;;;27.67;29.33
8360;BME280;4217;48.762;11.428;2022-07-18T21:25:22;97972.59;;;27.48;29.92
8360;BME280;4217;48.762;11.428;2022-07-18T21:35:24;97975.34;;;27.23;31.02
8360;BME280;4217;48.762;11.428;2022-07-18T21:45:26;97985.34;;;26.98;31.41
8360;BME280;4217;48.762;11.428;2022-07-18T21:55:28;97994.50;;;26.73;32.40
8360;BME280;4217;48.762;11.428;2022-07-18T22:05:30;97998.72;;;26.50;32.49
8360;BME280;4217;48.762;11.428;2022-07-18T22:15:32;98004.16;;;26.29;32.94
8360;BME280;4217;48.762;11.428;2022-07-18T22:25:34;97995.28;;;26.08;32.65
8360;BME280;4217;48.762;11.428;2022-07-18T22:35:36;97987.16;;;25.96;33.52
8360;BME280;4217;48.762;11.428;2022-07-18T22:45:37;97991.41;;;25.76;33.30
8360;BME280;4217;48.762;11.428;2022-07-18T22:55:39;97988.50;;;25.60;33.59
8360;BME280;4217;48.762;11.428;2022-07-18T23:05:40;97994.47;;;25.45;33.34
8360;BME280;4217;48.762;11.428;2022-07-18T23:15:44;98001.06;;;25.27;34.56
8360;BME280;4217;48.762;11.428;2022-07-18T23:25:45;98000.81;;;25.11;36.21
8360;BME280;4217;48.762;11.428;2022-07-18T23:35:47;97999.31;;;24.93;37.01
8360;BME280;4217;48.762;11.428;2022-07-18T23:45:49;98000.91;;;24.77;36.68
8360;BME280;4217;48.762;11.428;2022-07-18T23:55:50;97998.28;;;24.59;36.51
